TPOK1: Kansas River, State-Line, KS

                                SHEF ID:       TPOK1     MARAIS DES CYGNES R NR KS-MO ST
STATION TYPE:

STAGE STAGE(2) RIV-FLOW BAT-LOAD
ft ft cfs volt
Ccp-Rev Ccp-Rev Ccp-Rev Ccp-Rev
(America/Chicago)
08/06 00:00 5.29 5.20 605 12.45
08/06 01:00 5.28 5.20 601 12.42
08/06 02:00 5.26 5.19 592 12.37
08/06 03:00 5.38 5.25 646 12.34
08/06 04:00 5.34 5.25 628 12.34
08/06 05:00 5.31 5.23 614 12.33
08/06 06:00 5.29 5.20 605 12.32
08/06 07:00 5.24 5.15 583 12.31
08/06 08:00 5.22 5.13 574 12.36
08/06 09:00 5.19 5.10 561 12.67
08/06 10:00 5.17 5.07 552 13.03
08/06 11:00 5.16 5.05 548 13.05
08/06 12:00 5.14 5.03 540 13.24
08/06 13:00 5.11 5.02 527 13.24
08/06 14:00 5.11 5.01 527 13.19
08/06 15:00 5.10 5.01 523 13.11
08/06 16:00 5.11 5.00 527 13.03
08/06 17:00 5.12 5.04 531 12.90
08/06 18:00 5.16 5.08 548 12.86
08/06 19:00 5.23 5.13 578 12.73
08/06 20:00 5.28 5.18 601 12.60
08/06 21:00 5.32 5.26 619 12.53
08/06 22:00 5.41 5.32 660 12.50
08/06 23:00 5.45 5.39 679 12.50
Data processed at Fri 07Aug2026 04:52 GMT

NOTICE: If you are parsing this page

Please convert to using our Data API. Starting early 2026 we will be migrating to: https://water.usace.army.mil with modern pages rendered in JavaScript. When this migration completes you will no longer be able to scrape this page! CWMSDataAPI (CDA)

Timeseries IDs (TSIDs)

TSIDs used from left to right in the data table
MKSL.Stage.Inst.1Hour.0.Ccp-Rev
MKSL.Stage-Alt.Inst.1Hour.0.Ccp-Rev
MKSL.Flow.Inst.1Hour.0.Ccp-Rev
MKSL.Volt-Battery Load.Inst.1Hour.0.Ccp-Rev

                            

All information presented herein is the property of the government of the United States of America and may be revised or deleted at any time without prior notice. Dissemination of this information without the expressed written consent of the Public Affairs Office, Tulsa District U.S. Army Corps of Engineers is strictly prohibited. These data are gathered electronically and, as presented, have NOT undergone any form of quality control. These data are NOT guaranteed to be valid or correct.